Time;durP1;ratioP1;P1;durP2;ratioP2;P2;SDS_P1;SDS_P2;PMS_P1;PMS_P2;Temp;Humidity;BMP_temperature;BMP_pressure;BME280_temperature;BME280_humidity;BME280_pressure;Samples;Min_cycle;Max_cycle;Signal;HPM_P1;HPM_P2
2022/09/15 00:00:04;;;;;;;1.60;1.20;;;;;;;;;;5014320;28;20240;-60
2022/09/15 00:02:31;;;;;;;0.85;0.85;;;;;;;;;;5024849;28;20315;-60
2022/09/15 00:04:59;;;;;;;0.70;0.70;;;;;;;;;;5023364;28;20215;-61
2022/09/15 00:07:28;;;;;;;1.20;1.20;;;;;;;;;;5022109;28;20707;-60
2022/09/15 00:09:55;;;;;;;0.98;0.93;;;;;;;;;;5015319;28;20935;-60
2022/09/15 00:12:22;;;;;;;1.02;1.02;;;;;;;;;;5009057;28;20247;-60
2022/09/15 00:14:49;;;;;;;0.85;0.85;;;;;;;;;;5021798;28;20208;-60
2022/09/15 00:17:16;;;;;;;1.15;1.15;;;;;;;;;;5018171;28;20212;-60
2022/09/15 00:19:43;;;;;;;0.90;0.90;;;;;;;;;;5011626;28;20205;-60
2022/09/15 00:22:13;;;;;;;1.17;1.08;;;;;;;;;;5010179;28;20695;-60
2022/09/15 00:24:41;;;;;;;0.98;0.98;;;;;;;;;;5011530;28;20241;-60
2022/09/15 00:27:08;;;;;;;1.25;1.00;;;;;;;;;;5008705;28;20216;-60
2022/09/15 00:29:35;;;;;;;3.05;1.20;;;;;;;;;;5011014;28;20209;-60
2022/09/15 00:32:02;;;;;;;0.98;0.95;;;;;;;;;;5009024;28;20208;-60
2022/09/15 00:34:30;;;;;;;0.80;0.80;;;;;;;;;;5010070;28;20201;-60
2022/09/15 00:36:57;;;;;;;0.88;0.88;;;;;;;;;;5008993;28;20209;-60
2022/09/15 00:39:24;;;;;;;1.35;0.90;;;;;;;;;;5009715;28;20197;-60
2022/09/15 00:41:52;;;;;;;0.90;0.90;;;;;;;;;;5014995;28;20228;-60
2022/09/15 00:44:38;;;;;;;1.25;1.20;;;;;;;;;;5025274;28;20284;-60
2022/09/15 00:47:06;;;;;;;1.23;1.13;;;;;;;;;;5025180;28;20211;-60
2022/09/15 00:49:35;;;;;;;1.10;1.10;;;;;;;;;;5016794;28;20200;-60
2022/09/15 00:52:05;;;;;;;1.08;1.05;;;;;;;;;;5016001;28;20209;-60
2022/09/15 00:54:36;;;;;;;1.13;1.13;;;;;;;;;;5024161;28;20204;-60
2022/09/15 00:57:06;;;;;;;2.50;1.33;;;;;;;;;;5014811;28;20205;-60
2022/09/15 00:59:35;;;;;;;2.78;1.20;;;;;;;;;;5024391;28;20207;-59
2022/09/15 01:02:04;;;;;;;1.08;0.93;;;;;;;;;;5029307;28;20236;-59
2022/09/15 01:04:32;;;;;;;1.40;1.40;;;;;;;;;;5025558;28;20270;-59
2022/09/15 01:07:01;;;;;;;1.42;1.33;;;;;;;;;;5013920;28;20651;-59
2022/09/15 01:09:30;;;;;;;1.30;1.20;;;;;;;;;;5017618;28;20213;-59
2022/09/15 01:11:57;;;;;;;1.27;1.27;;;;;;;;;;5013613;28;20255;-59
2022/09/15 01:14:25;;;;;;;1.15;1.15;;;;;;;;;;5017121;28;20283;-59
2022/09/15 01:16:58;;;;;;;1.33;1.27;;;;;;;;;;5017157;28;20675;-59
2022/09/15 01:19:46;;;;;;;2.83;1.20;;;;;;;;;;5019905;28;20233;-59
2022/09/15 01:22:17;;;;;;;3.08;1.23;;;;;;;;;;5014519;28;20866;-59
2022/09/15 01:24:46;;;;;;;1.52;1.13;;;;;;;;;;5012993;28;20233;-59
2022/09/15 01:27:17;;;;;;;1.05;1.05;;;;;;;;;;5012484;28;20259;-59
2022/09/15 01:29:57;;;;;;;1.48;1.48;;;;;;;;;;5013754;28;20201;-60
2022/09/15 01:35:23;;;;;;;1.10;1.10;;;;;;;;;;5002503;28;20220;-60
2022/09/15 01:37:53;;;;;;;0.90;0.90;;;;;;;;;;5014049;28;20232;-59
2022/09/15 01:40:22;;;;;;;1.20;1.10;;;;;;;;;;5031645;28;20205;-59
2022/09/15 01:42:51;;;;;;;1.30;1.20;;;;;;;;;;5030101;28;20595;-59
2022/09/15 01:45:22;;;;;;;1.10;1.10;;;;;;;;;;5012990;28;20204;-59
2022/09/15 01:47:51;;;;;;;1.33;1.15;;;;;;;;;;5012385;28;20686;-60
2022/09/15 01:50:20;;;;;;;1.00;1.00;;;;;;;;;;5029302;28;20208;-59
2022/09/15 01:52:49;;;;;;;1.10;1.00;;;;;;;;;;5031219;28;20212;-58
2022/09/15 01:55:18;;;;;;;0.88;0.88;;;;;;;;;;5012859;28;20208;-59
2022/09/15 01:57:45;;;;;;;1.60;1.08;;;;;;;;;;5021311;28;20570;-59
2022/09/15 02:00:13;;;;;;;1.08;1.08;;;;;;;;;;5023746;28;20210;-59
2022/09/15 02:02:43;;;;;;;1.35;1.30;;;;;;;;;;5031066;28;20247;-59
2022/09/15 02:05:12;;;;;;;5.40;1.20;;;;;;;;;;5015982;28;20578;-59
2022/09/15 02:07:44;;;;;;;1.10;1.10;;;;;;;;;;5012668;28;20249;-59
2022/09/15 02:10:13;;;;;;;2.30;1.30;;;;;;;;;;5030745;28;20204;-59
2022/09/15 02:12:43;;;;;;;1.20;1.20;;;;;;;;;;5029887;28;20323;-59
2022/09/15 02:15:13;;;;;;;2.03;1.23;;;;;;;;;;5012805;28;20208;-58
2022/09/15 02:17:44;;;;;;;1.20;1.20;;;;;;;;;;5024656;28;20282;-58
2022/09/15 02:20:14;;;;;;;1.33;1.27;;;;;;;;;;5011744;28;20240;-58
2022/09/15 02:22:44;;;;;;;1.60;1.50;;;;;;;;;;5021051;28;20234;-59
2022/09/15 02:25:12;;;;;;;1.50;1.50;;;;;;;;;;5010608;28;20232;-59
2022/09/15 02:27:43;;;;;;;1.85;1.35;;;;;;;;;;5011189;28;20197;-58
2022/09/15 02:30:11;;;;;;;1.48;1.42;;;;;;;;;;5013901;28;20258;-58
2022/09/15 02:32:41;;;;;;;1.00;1.00;;;;;;;;;;5011797;28;20205;-58
2022/09/15 02:35:10;;;;;;;1.10;1.10;;;;;;;;;;5012590;28;20750;-58
2022/09/15 02:37:38;;;;;;;0.90;0.90;;;;;;;;;;5013459;28;20551;-58
2022/09/15 02:40:06;;;;;;;0.82;0.82;;;;;;;;;;5020631;28;20295;-58
2022/09/15 02:42:33;;;;;;;0.77;0.73;;;;;;;;;;5017826;28;20240;-59
2022/09/15 02:45:01;;;;;;;0.70;0.70;;;;;;;;;;5014258;28;20675;-59
2022/09/15 02:47:28;;;;;;;0.82;0.82;;;;;;;;;;5011548;28;20201;-59
2022/09/15 02:50:01;;;;;;;0.60;0.60;;;;;;;;;;5016967;28;20267;-59
2022/09/15 02:52:29;;;;;;;1.30;0.50;;;;;;;;;;5026541;28;20201;-59
2022/09/15 02:54:57;;;;;;;0.77;0.68;;;;;;;;;;5020527;28;20235;-59
2022/09/15 02:57:24;;;;;;;0.38;0.38;;;;;;;;;;5026449;28;20216;-59
2022/09/15 03:02:35;;;;;;;0.40;0.40;;;;;;;;;;5011284;28;20382;-59
2022/09/15 03:05:02;;;;;;;0.20;0.20;;;;;;;;;;5011013;28;20749;-58
2022/09/15 03:07:31;;;;;;;0.70;0.50;;;;;;;;;;5010854;28;20217;-58
2022/09/15 03:09:58;;;;;;;0.38;0.38;;;;;;;;;;5014135;28;20200;-59
2022/09/15 03:12:25;;;;;;;0.30;0.30;;;;;;;;;;5012133;28;20737;-58
2022/09/15 03:14:52;;;;;;;0.20;0.20;;;;;;;;;;5024989;28;20196;-59
2022/09/15 03:17:19;;;;;;;0.40;0.40;;;;;;;;;;5016049;28;20197;-59
2022/09/15 03:19:46;;;;;;;0.40;0.40;;;;;;;;;;5024741;28;20325;-61
2022/09/15 03:22:13;;;;;;;0.40;0.40;;;;;;;;;;5026159;28;20262;-61
2022/09/15 03:24:42;;;;;;;0.30;0.30;;;;;;;;;;5012971;28;20696;-60
2022/09/15 03:27:09;;;;;;;0.90;0.40;;;;;;;;;;5021515;28;20201;-61
2022/09/15 03:29:36;;;;;;;0.40;0.40;;;;;;;;;;5022447;28;20295;-61
2022/09/15 03:32:03;;;;;;;0.17;0.17;;;;;;;;;;5011819;28;20232;-61
2022/09/15 03:34:30;;;;;;;0.50;0.28;;;;;;;;;;5010051;28;20201;-61
2022/09/15 03:36:57;;;;;;;0.43;0.38;;;;;;;;;;5009552;28;20622;-61
2022/09/15 03:39:24;;;;;;;0.30;0.30;;;;;;;;;;5015530;28;20201;-61
2022/09/15 03:41:52;;;;;;;0.50;0.50;;;;;;;;;;5010133;28;20216;-61
2022/09/15 03:44:19;;;;;;;0.40;0.40;;;;;;;;;;5013588;28;20220;-60
2022/09/15 03:46:47;;;;;;;0.63;0.63;;;;;;;;;;5021444;28;20211;-61
2022/09/15 03:49:14;;;;;;;0.90;0.90;;;;;;;;;;5023794;28;20291;-60
2022/09/15 03:51:41;;;;;;;0.98;0.98;;;;;;;;;;5014155;28;20286;-61
2022/09/15 03:54:08;;;;;;;1.38;1.38;;;;;;;;;;5016639;28;20208;-61
2022/09/15 03:56:35;;;;;;;1.50;1.40;;;;;;;;;;5014882;28;20208;-60
2022/09/15 03:59:05;;;;;;;1.65;1.55;;;;;;;;;;5025671;28;20209;-61
2022/09/15 04:01:32;;;;;;;1.85;1.73;;;;;;;;;;5019139;28;20734;-61
2022/09/15 04:03:59;;;;;;;2.63;2.42;;;;;;;;;;5008815;28;20267;-61
2022/09/15 04:06:27;;;;;;;2.08;1.98;;;;;;;;;;5017778;28;20838;-60
2022/09/15 04:08:54;;;;;;;1.85;1.75;;;;;;;;;;5009326;28;20205;-61
2022/09/15 04:11:22;;;;;;;3.00;2.08;;;;;;;;;;5016924;28;20294;-60
2022/09/15 04:13:49;;;;;;;2.92;2.70;;;;;;;;;;5014410;28;20201;-60
2022/09/15 04:16:18;;;;;;;2.95;2.75;;;;;;;;;;5017842;28;20250;-61
2022/09/15 04:18:45;;;;;;;4.95;2.78;;;;;;;;;;5010361;28;20706;-60
2022/09/15 04:21:13;;;;;;;3.50;3.00;;;;;;;;;;5016029;28;20208;-61
2022/09/15 04:23:41;;;;;;;3.17;2.92;;;;;;;;;;5009910;28;20229;-60
2022/09/15 04:26:10;;;;;;;5.28;3.58;;;;;;;;;;5008824;28;20213;-60
2022/09/15 04:28:38;;;;;;;4.85;3.80;;;;;;;;;;5021029;28;20196;-61
2022/09/15 04:31:06;;;;;;;4.78;4.22;;;;;;;;;;5020301;28;20651;-60
2022/09/15 04:33:35;;;;;;;5.20;3.70;;;;;;;;;;5024044;28;20201;-60
2022/09/15 04:36:02;;;;;;;5.57;3.40;;;;;;;;;;5016592;28;20208;-60
2022/09/15 04:38:30;;;;;;;4.68;3.90;;;;;;;;;;5022484;28;20201;-60
2022/09/15 04:40:57;;;;;;;5.18;4.00;;;;;;;;;;5025271;28;20212;-61
2022/09/15 04:43:24;;;;;;;8.07;4.63;;;;;;;;;;5014842;28;20282;-61
2022/09/15 04:45:52;;;;;;;7.43;4.53;;;;;;;;;;5024462;28;20208;-60
2022/09/15 04:48:19;;;;;;;7.80;4.60;;;;;;;;;;5025484;28;20209;-59
2022/09/15 04:50:47;;;;;;;7.07;4.97;;;;;;;;;;5022872;28;20278;-62
2022/09/15 04:53:14;;;;;;;5.88;4.63;;;;;;;;;;5008952;28;20213;-59
2022/09/15 04:55:41;;;;;;;6.80;4.35;;;;;;;;;;5015983;28;20208;-59
2022/09/15 04:58:08;;;;;;;6.85;5.10;;;;;;;;;;5015575;28;20212;-62
2022/09/15 05:00:42;;;;;;;5.82;4.38;;;;;;;;;;5019954;28;20200;-62
2022/09/15 05:03:09;;;;;;;7.57;4.88;;;;;;;;;;5016468;28;20197;-60
2022/09/15 05:05:36;;;;;;;4.97;3.90;;;;;;;;;;5010235;28;20563;-60
2022/09/15 05:08:04;;;;;;;8.60;4.53;;;;;;;;;;5017766;28;20204;-59
2022/09/15 05:10:31;;;;;;;5.15;4.20;;;;;;;;;;5021627;28;20205;-60
2022/09/15 05:12:59;;;;;;;4.28;3.70;;;;;;;;;;5010473;28;20212;-60
2022/09/15 05:15:26;;;;;;;6.03;4.00;;;;;;;;;;5010638;28;20255;-61
2022/09/15 05:17:53;;;;;;;5.80;3.95;;;;;;;;;;5009036;28;20239;-60
2022/09/15 05:20:20;;;;;;;3.42;3.13;;;;;;;;;;5015410;28;20201;-61
2022/09/15 05:22:47;;;;;;;5.03;4.25;;;;;;;;;;5028992;28;20238;-60
2022/09/15 05:25:15;;;;;;;4.05;3.70;;;;;;;;;;5022359;28;20271;-60
2022/09/15 05:27:42;;;;;;;4.15;3.75;;;;;;;;;;5019915;28;20213;-61
2022/09/15 05:30:10;;;;;;;3.67;3.38;;;;;;;;;;5009774;28;20259;-60
2022/09/15 05:32:37;;;;;;;3.38;3.15;;;;;;;;;;5012443;28;20625;-60
2022/09/15 05:35:05;;;;;;;5.25;3.97;;;;;;;;;;5014128;28;20641;-60
2022/09/15 05:37:34;;;;;;;3.65;3.35;;;;;;;;;;5012436;28;20255;-61
2022/09/15 05:40:01;;;;;;;3.25;2.92;;;;;;;;;;5023810;28;20211;-61
2022/09/15 05:42:31;;;;;;;4.70;3.60;;;;;;;;;;5030506;28;20212;-61
2022/09/15 05:44:58;;;;;;;3.55;2.83;;;;;;;;;;5031737;28;20714;-60
2022/09/15 05:47:25;;;;;;;3.15;2.95;;;;;;;;;;5020141;28;20213;-64
2022/09/15 05:49:53;;;;;;;4.07;3.25;;;;;;;;;;5018187;28;20217;-59
2022/09/15 05:55:07;;;;;;;5.57;3.35;;;;;;;;;;5030501;28;20266;-59
2022/09/15 05:57:35;;;;;;;3.88;3.47;;;;;;;;;;5021618;28;20212;-59
2022/09/15 06:00:03;;;;;;;3.28;3.08;;;;;;;;;;5011262;28;20746;-59
2022/09/15 06:02:30;;;;;;;4.00;2.95;;;;;;;;;;5011707;28;20621;-59
2022/09/15 06:04:57;;;;;;;2.88;2.67;;;;;;;;;;5011694;28;20233;-60
2022/09/15 06:07:24;;;;;;;3.13;2.35;;;;;;;;;;5021846;28;20208;-59
2022/09/15 06:09:52;;;;;;;3.08;2.13;;;;;;;;;;5031305;28;20216;-59
2022/09/15 06:12:19;;;;;;;1.55;1.55;;;;;;;;;;5021686;28;20235;-59
2022/09/15 06:14:49;;;;;;;3.55;2.00;;;;;;;;;;5011077;28;20575;-59
2022/09/15 06:17:16;;;;;;;1.80;1.70;;;;;;;;;;5019493;28;20212;-60
2022/09/15 06:19:43;;;;;;;1.67;1.58;;;;;;;;;;5015694;28;20213;-59
2022/09/15 06:22:10;;;;;;;1.77;1.48;;;;;;;;;;5011144;28;20209;-60
2022/09/15 06:24:37;;;;;;;1.58;1.48;;;;;;;;;;5011951;28;20287;-59
2022/09/15 06:27:04;;;;;;;1.13;1.13;;;;;;;;;;5011323;28;20209;-60
2022/09/15 06:29:32;;;;;;;2.35;1.48;;;;;;;;;;5014806;28;20216;-60
2022/09/15 06:32:01;;;;;;;3.10;1.48;;;;;;;;;;5024636;28;20258;-62
2022/09/15 06:34:28;;;;;;;1.50;1.40;;;;;;;;;;5013922;28;20228;-60
2022/09/15 06:36:56;;;;;;;1.10;1.10;;;;;;;;;;5014212;28;20299;-60
2022/09/15 06:39:23;;;;;;;1.52;1.45;;;;;;;;;;5030294;28;20328;-60
2022/09/15 06:41:50;;;;;;;1.02;1.02;;;;;;;;;;5030544;28;20235;-61
2022/09/15 06:44:17;;;;;;;1.55;1.50;;;;;;;;;;5030180;28;20346;-61
2022/09/15 06:46:44;;;;;;;3.90;1.73;;;;;;;;;;5030230;28;20266;-60
2022/09/15 06:49:13;;;;;;;1.35;1.35;;;;;;;;;;5025732;28;20676;-59
2022/09/15 06:51:40;;;;;;;1.60;1.60;;;;;;;;;;5010287;28;20645;-60
2022/09/15 06:54:07;;;;;;;1.63;1.52;;;;;;;;;;5010380;28;20894;-61
2022/09/15 06:56:35;;;;;;;1.45;1.45;;;;;;;;;;5010423;28;20668;-59
2022/09/15 06:59:02;;;;;;;1.40;1.30;;;;;;;;;;5010024;28;20205;-61
2022/09/15 07:01:31;;;;;;;1.42;1.27;;;;;;;;;;5020055;28;20300;-60
2022/09/15 07:03:58;;;;;;;2.65;1.30;;;;;;;;;;5013072;28;20328;-60
2022/09/15 07:06:28;;;;;;;1.33;1.33;;;;;;;;;;5025340;28;20666;-59
2022/09/15 07:08:55;;;;;;;1.58;1.48;;;;;;;;;;5010893;28;20275;-60
2022/09/15 07:11:23;;;;;;;1.90;1.80;;;;;;;;;;5011315;28;20698;-59
2022/09/15 07:13:50;;;;;;;4.15;1.60;;;;;;;;;;5019897;28;20204;-59
2022/09/15 07:16:17;;;;;;;2.45;1.38;;;;;;;;;;5027021;28;20252;-59
2022/09/15 07:18:44;;;;;;;2.22;1.25;;;;;;;;;;5022693;28;20316;-60
2022/09/15 07:21:13;;;;;;;1.48;1.35;;;;;;;;;;5018938;28;20270;-59
2022/09/15 07:23:41;;;;;;;1.30;1.30;;;;;;;;;;5018950;28;20216;-59
2022/09/15 07:26:09;;;;;;;1.38;1.38;;;;;;;;;;5009752;28;20668;-59
2022/09/15 07:28:37;;;;;;;2.00;1.42;;;;;;;;;;5006604;28;20205;-57
2022/09/15 07:31:04;;;;;;;1.30;1.30;;;;;;;;;;5009497;28;20220;-59
2022/09/15 07:33:32;;;;;;;1.73;1.52;;;;;;;;;;5011680;28;20212;-60
2022/09/15 07:35:59;;;;;;;1.38;1.27;;;;;;;;;;5024950;28;20232;-65
2022/09/15 07:38:26;;;;;;;2.15;1.30;;;;;;;;;;5012591;28;20224;-60
2022/09/15 07:40:54;;;;;;;1.85;1.25;;;;;;;;;;5011028;28;20403;-61
2022/09/15 07:43:21;;;;;;;1.10;1.10;;;;;;;;;;5024769;28;20204;-60
2022/09/15 07:45:49;;;;;;;1.00;1.00;;;;;;;;;;5012629;28;20365;-60
2022/09/15 07:51:21;;;;;;;1.38;1.10;;;;;;;;;;5013873;28;20542;-59
2022/09/15 07:53:49;;;;;;;2.97;1.15;;;;;;;;;;5029432;28;20270;-59
2022/09/15 07:56:18;;;;;;;0.93;0.93;;;;;;;;;;5021086;28;20221;-60
2022/09/15 07:58:45;;;;;;;0.90;0.90;;;;;;;;;;5008362;28;20233;-59
2022/09/15 08:01:13;;;;;;;1.00;1.00;;;;;;;;;;5008973;28;20209;-59
2022/09/15 08:03:41;;;;;;;1.20;1.10;;;;;;;;;;5009065;28;20213;-58
2022/09/15 08:06:08;;;;;;;0.98;0.98;;;;;;;;;;5008610;28;20236;-58
2022/09/15 08:08:37;;;;;;;1.70;1.02;;;;;;;;;;5008891;28;20295;-58
2022/09/15 08:11:06;;;;;;;0.98;0.85;;;;;;;;;;5008558;28;20662;-59
2022/09/15 08:13:35;;;;;;;0.70;0.70;;;;;;;;;;5009013;28;20307;-58
2022/09/15 08:16:06;;;;;;;1.48;0.90;;;;;;;;;;5008787;28;20249;-60
2022/09/15 08:18:33;;;;;;;0.80;0.80;;;;;;;;;;5008499;28;20323;-60
2022/09/15 08:21:00;;;;;;;1.27;1.10;;;;;;;;;;5013584;28;20208;-60
2022/09/15 08:23:27;;;;;;;2.10;1.00;;;;;;;;;;5026543;28;20204;-59
2022/09/15 08:25:54;;;;;;;1.10;0.75;;;;;;;;;;5021816;28;20282;-61
2022/09/15 08:28:21;;;;;;;0.88;0.88;;;;;;;;;;5029125;28;20258;-62
2022/09/15 08:30:49;;;;;;;1.90;1.00;;;;;;;;;;5007777;28;20267;-59
2022/09/15 08:33:16;;;;;;;0.90;0.90;;;;;;;;;;5009374;28;20216;-62
2022/09/15 08:35:43;;;;;;;0.82;0.82;;;;;;;;;;5021792;28;20734;-60
2022/09/15 08:38:10;;;;;;;0.50;0.50;;;;;;;;;;5009399;28;20300;-60
2022/09/15 08:40:38;;;;;;;1.00;1.00;;;;;;;;;;5009038;28;20267;-60
2022/09/15 08:43:06;;;;;;;1.45;0.80;;;;;;;;;;5009383;28;20213;-64
2022/09/15 08:45:36;;;;;;;0.73;0.73;;;;;;;;;;5009325;28;20715;-61
2022/09/15 08:48:07;;;;;;;0.82;0.80;;;;;;;;;;5010871;28;20320;-61
2022/09/15 08:50:37;;;;;;;5.22;0.80;;;;;;;;;;5010869;28;20875;-60
2022/09/15 08:53:08;;;;;;;1.95;0.98;;;;;;;;;;5009893;28;20282;-60
2022/09/15 08:55:38;;;;;;;0.95;0.95;;;;;;;;;;5009114;28;20232;-60
2022/09/15 08:58:06;;;;;;;1.52;1.27;;;;;;;;;;5011384;28;20626;-60
2022/09/15 09:00:33;;;;;;;2.17;1.13;;;;;;;;;;5028479;28;20212;-61
2022/09/15 09:03:16;;;;;;;2.53;1.30;;;;;;;;;;5015710;28;20277;-61
2022/09/15 09:05:47;;;;;;;1.58;1.48;;;;;;;;;;5009102;28;20228;-61
2022/09/15 09:08:26;;;;;;;1.60;1.60;;;;;;;;;;5008723;28;20212;-61
2022/09/15 09:10:54;;;;;;;1.83;1.60;;;;;;;;;;5008652;28;20587;-61
2022/09/15 09:13:28;;;;;;;5.05;1.58;;;;;;;;;;5012069;28;20205;-60
2022/09/15 09:16:06;;;;;;;2.20;2.10;;;;;;;;;;5012361;28;20613;-60
2022/09/15 09:18:45;;;;;;;1.63;1.50;;;;;;;;;;5012226;28;20295;-61
2022/09/15 09:21:19;;;;;;;2.75;1.70;;;;;;;;;;5011750;28;20216;-61
2022/09/15 09:23:49;;;;;;;1.88;1.70;;;;;;;;;;5012136;28;20212;-61
2022/09/15 09:26:16;;;;;;;1.98;1.88;;;;;;;;;;5012351;28;20229;-61
2022/09/15 09:28:46;;;;;;;1.92;1.67;;;;;;;;;;5012315;28;20213;-61
2022/09/15 09:31:16;;;;;;;2.08;1.95;;;;;;;;;;5011972;28;20209;-61
2022/09/15 09:33:50;;;;;;;1.75;1.70;;;;;;;;;;5011895;28;20220;-60
2022/09/15 09:36:17;;;;;;;1.88;1.88;;;;;;;;;;5011676;28;20212;-60
2022/09/15 09:38:45;;;;;;;2.13;2.03;;;;;;;;;;5013201;28;20208;-60
2022/09/15 09:41:13;;;;;;;2.30;2.10;;;;;;;;;;5019906;28;20205;-60
2022/09/15 09:43:41;;;;;;;3.25;2.42;;;;;;;;;;5012244;28;20205;-59
2022/09/15 09:46:12;;;;;;;2.10;2.03;;;;;;;;;;5010894;28;20262;-59
2022/09/15 09:48:40;;;;;;;2.47;2.25;;;;;;;;;;5011566;28;20209;-59
2022/09/15 09:51:30;;;;;;;2.30;2.20;;;;;;;;;;5010853;28;20224;-59
2022/09/15 09:53:57;;;;;;;3.55;2.67;;;;;;;;;;5030034;28;20212;-59
2022/09/15 09:56:25;;;;;;;4.13;2.63;;;;;;;;;;5028690;28;20721;-59
2022/09/15 09:58:52;;;;;;;2.50;2.40;;;;;;;;;;5030083;28;20296;-60
2022/09/15 10:01:20;;;;;;;3.05;2.58;;;;;;;;;;5017502;28;20268;-59
2022/09/15 10:03:47;;;;;;;3.05;2.80;;;;;;;;;;5028468;28;20262;-59
2022/09/15 10:06:16;;;;;;;2.92;2.78;;;;;;;;;;5023926;28;20233;-60
2022/09/15 10:08:56;;;;;;;5.30;2.83;;;;;;;;;;5010259;28;20251;-60
2022/09/15 10:11:38;;;;;;;3.55;2.70;;;;;;;;;;5010604;28;20649;-60
2022/09/15 10:14:06;;;;;;;3.35;2.60;;;;;;;;;;5011815;28;20213;-59
2022/09/15 10:16:33;;;;;;;3.67;2.72;;;;;;;;;;5030294;28;20618;-60
2022/09/15 10:19:00;;;;;;;2.47;2.38;;;;;;;;;;5029849;28;20767;-60
2022/09/15 10:21:27;;;;;;;3.05;2.75;;;;;;;;;;5011453;28;20212;-60
2022/09/15 10:23:56;;;;;;;4.70;3.15;;;;;;;;;;5010628;28;20303;-59
2022/09/15 10:26:31;;;;;;;3.10;2.55;;;;;;;;;;5012004;28;20248;-60
2022/09/15 10:29:11;;;;;;;2.55;2.35;;;;;;;;;;5010866;28;20290;-59
2022/09/15 10:31:38;;;;;;;2.60;2.40;;;;;;;;;;5029984;28;20622;-59
2022/09/15 10:34:20;;;;;;;3.08;2.53;;;;;;;;;;5030390;28;20287;-64
2022/09/15 10:36:47;;;;;;;2.33;2.13;;;;;;;;;;5029770;28;20212;-60
2022/09/15 10:39:18;;;;;;;3.05;2.83;;;;;;;;;;5023203;28;20733;-60
2022/09/15 10:41:48;;;;;;;2.75;2.55;;;;;;;;;;5008784;28;20217;-61
2022/09/15 10:44:26;;;;;;;3.63;3.03;;;;;;;;;;5011342;28;20212;-62
2022/09/15 10:46:58;;;;;;;2.88;2.67;;;;;;;;;;5008797;28;20232;-61
2022/09/15 10:49:34;;;;;;;2.80;2.58;;;;;;;;;;5009988;28;20212;-60
2022/09/15 10:52:07;;;;;;;4.05;3.25;;;;;;;;;;5010421;28;20216;-59
2022/09/15 10:54:47;;;;;;;3.05;2.83;;;;;;;;;;5028823;28;20578;-59
2022/09/15 10:57:22;;;;;;;4.65;2.58;;;;;;;;;;5029397;28;20212;-60
2022/09/15 10:59:52;;;;;;;3.80;3.33;;;;;;;;;;5025120;28;20649;-64
2022/09/15 11:02:29;;;;;;;4.10;3.75;;;;;;;;;;5029142;28;20911;-61
2022/09/15 11:05:06;;;;;;;3.90;3.53;;;;;;;;;;5010449;28;20221;-61
2022/09/15 11:07:38;;;;;;;3.72;3.42;;;;;;;;;;5012311;28;20294;-61
2022/09/15 11:10:11;;;;;;;3.50;3.20;;;;;;;;;;5014750;28;20267;-61
2022/09/15 11:12:43;;;;;;;4.10;3.65;;;;;;;;;;5011589;28;20216;-61
2022/09/15 11:15:18;;;;;;;3.28;3.13;;;;;;;;;;5012033;28;20193;-62
2022/09/15 11:17:49;;;;;;;3.20;2.95;;;;;;;;;;5011973;28;20278;-60
2022/09/15 11:20:33;;;;;;;3.50;3.25;;;;;;;;;;5028972;28;20655;-60
2022/09/15 11:23:02;;;;;;;5.03;3.80;;;;;;;;;;5025679;28;20212;-60
2022/09/15 11:25:32;;;;;;;3.30;3.10;;;;;;;;;;5023335;28;20236;-60
2022/09/15 11:28:01;;;;;;;3.17;3.00;;;;;;;;;;5011063;28;20231;-60
2022/09/15 11:30:32;;;;;;;3.47;3.20;;;;;;;;;;5010001;28;20259;-60
2022/09/15 11:33:01;;;;;;;5.88;3.75;;;;;;;;;;5009128;28;20942;-61
2022/09/15 11:35:37;;;;;;;4.05;3.35;;;;;;;;;;5009733;28;20672;-60
2022/09/15 11:38:19;;;;;;;3.35;2.80;;;;;;;;;;5009775;28;20293;-61
2022/09/15 11:40:49;;;;;;;3.35;3.05;;;;;;;;;;5014156;28;20227;-61
2022/09/15 11:43:18;;;;;;;2.85;2.67;;;;;;;;;;5024784;28;20213;-58
2022/09/15 11:45:47;;;;;;;2.78;2.58;;;;;;;;;;5017972;28;20221;-58
2022/09/15 11:48:16;;;;;;;2.90;2.70;;;;;;;;;;5008910;28;20209;-59
2022/09/15 11:50:45;;;;;;;3.20;2.92;;;;;;;;;;5025710;28;20217;-58
2022/09/15 11:53:16;;;;;;;2.78;2.58;;;;;;;;;;5019290;28;20667;-59
2022/09/15 11:55:44;;;;;;;3.35;2.78;;;;;;;;;;5020436;28;20606;-59
2022/09/15 11:58:18;;;;;;;3.33;2.83;;;;;;;;;;5028397;28;20220;-58
2022/09/15 12:00:49;;;;;;;3.60;3.13;;;;;;;;;;5023508;28;20583;-59
2022/09/15 12:03:20;;;;;;;3.08;2.88;;;;;;;;;;5023068;28;20315;-59
2022/09/15 12:05:49;;;;;;;2.92;2.72;;;;;;;;;;5008824;28;20636;-58
2022/09/15 12:08:19;;;;;;;3.30;3.00;;;;;;;;;;5004953;28;20208;-58
2022/09/15 12:10:47;;;;;;;2.85;2.17;;;;;;;;;;5025110;28;20212;-59
2022/09/15 12:13:17;;;;;;;3.00;2.17;;;;;;;;;;5018103;28;20620;-59
2022/09/15 12:15:44;;;;;;;2.20;2.05;;;;;;;;;;5008551;28;20200;-60
2022/09/15 12:18:19;;;;;;;2.25;2.15;;;;;;;;;;5008903;28;20299;-59
2022/09/15 12:20:50;;;;;;;2.20;2.10;;;;;;;;;;5008408;28;20287;-61
2022/09/15 12:23:21;;;;;;;2.97;2.13;;;;;;;;;;5009199;28;20737;-58
2022/09/15 12:26:02;;;;;;;2.22;2.13;;;;;;;;;;5014591;28;20236;-59
2022/09/15 12:28:41;;;;;;;2.60;2.47;;;;;;;;;;5020077;28;20304;-58
2022/09/15 12:31:31;;;;;;;2.20;2.10;;;;;;;;;;5011525;28;20212;-59
2022/09/15 12:33:59;;;;;;;2.05;1.95;;;;;;;;;;5008467;28;20755;-59
2022/09/15 12:36:40;;;;;;;2.08;1.98;;;;;;;;;;5018020;28;20208;-59
2022/09/15 12:39:28;;;;;;;2.33;2.05;;;;;;;;;;5009333;28;20213;-62
2022/09/15 12:41:56;;;;;;;2.95;2.20;;;;;;;;;;5008417;28;20634;-58
2022/09/15 12:44:35;;;;;;;2.53;1.88;;;;;;;;;;5020100;28;20211;-58
2022/09/15 12:47:04;;;;;;;1.77;1.17;;;;;;;;;;5023580;28;20910;-57
2022/09/15 12:49:33;;;;;;;1.25;1.25;;;;;;;;;;5028150;28;20208;-58
2022/09/15 12:52:01;;;;;;;1.30;1.20;;;;;;;;;;5017663;28;20213;-58
2022/09/15 12:54:30;;;;;;;1.13;1.13;;;;;;;;;;5021026;28;20219;-58
2022/09/15 12:56:58;;;;;;;1.27;1.27;;;;;;;;;;5031343;28;20291;-58
2022/09/15 12:59:26;;;;;;;1.23;1.23;;;;;;;;;;5020304;28;20243;-58
2022/09/15 13:01:56;;;;;;;1.35;1.33;;;;;;;;;;5021606;28;20746;-60
2022/09/15 13:04:28;;;;;;;1.48;1.48;;;;;;;;;;5007783;28;20328;-59
2022/09/15 13:07:19;;;;;;;1.60;1.55;;;;;;;;;;5012056;28;20718;-61
2022/09/15 13:09:56;;;;;;;1.77;1.67;;;;;;;;;;5017082;28;20216;-59
2022/09/15 13:12:25;;;;;;;1.58;1.50;;;;;;;;;;5011411;28;20286;-60
2022/09/15 13:14:54;;;;;;;1.67;1.58;;;;;;;;;;5026934;28;20208;-60
2022/09/15 13:17:25;;;;;;;1.45;1.45;;;;;;;;;;5029657;28;20583;-60
2022/09/15 13:19:54;;;;;;;2.10;2.00;;;;;;;;;;5015645;28;20214;-61
2022/09/15 13:22:26;;;;;;;1.15;1.15;;;;;;;;;;5025540;28;20291;-60
2022/09/15 13:24:54;;;;;;;1.58;1.52;;;;;;;;;;5029841;28;20236;-59
2022/09/15 13:27:22;;;;;;;1.45;1.35;;;;;;;;;;5024152;28;20232;-59
2022/09/15 13:29:51;;;;;;;1.63;1.63;;;;;;;;;;5012603;28;20213;-59
2022/09/15 13:32:23;;;;;;;2.53;1.15;;;;;;;;;;5024396;28;20213;-58
2022/09/15 13:35:14;;;;;;;1.38;1.38;;;;;;;;;;5018985;28;20595;-59
2022/09/15 13:37:59;;;;;;;1.75;1.67;;;;;;;;;;5020030;28;20205;-59
2022/09/15 13:40:34;;;;;;;1.55;1.48;;;;;;;;;;5018100;28;20216;-59
2022/09/15 13:43:08;;;;;;;1.60;1.50;;;;;;;;;;5018069;28;20196;-59
2022/09/15 13:45:45;;;;;;;1.50;1.38;;;;;;;;;;5013699;28;20213;-58
2022/09/15 13:48:27;;;;;;;3.13;1.60;;;;;;;;;;5018586;28;20254;-58
2022/09/15 13:50:57;;;;;;;1.90;1.67;;;;;;;;;;5028285;28;20216;-58
2022/09/15 13:53:41;;;;;;;1.75;1.65;;;;;;;;;;5023139;28;20663;-58
2022/09/15 13:56:10;;;;;;;1.27;1.27;;;;;;;;;;5023691;28;20230;-58
2022/09/15 13:58:37;;;;;;;1.30;1.30;;;;;;;;;;5018504;28;20204;-58
2022/09/15 14:01:05;;;;;;;2.05;1.45;;;;;;;;;;5023227;28;20555;-58
2022/09/15 14:03:36;;;;;;;1.45;1.45;;;;;;;;;;5007634;28;20205;-58
2022/09/15 14:06:10;;;;;;;1.35;1.35;;;;;;;;;;5029153;28;20286;-58
2022/09/15 14:08:38;;;;;;;1.38;1.30;;;;;;;;;;5011440;28;20305;-57
2022/09/15 14:11:07;;;;;;;1.33;1.33;;;;;;;;;;5009405;28;20687;-58
2022/09/15 14:13:36;;;;;;;1.58;1.58;;;;;;;;;;5010925;28;20209;-58
2022/09/15 14:16:05;;;;;;;1.50;1.40;;;;;;;;;;5011199;28;20213;-58
2022/09/15 14:18:41;;;;;;;1.75;1.75;;;;;;;;;;5010173;28;20271;-58
2022/09/15 14:21:16;;;;;;;1.70;1.70;;;;;;;;;;5009942;28;20634;-58
2022/09/15 14:23:45;;;;;;;1.77;1.77;;;;;;;;;;5022948;28;20332;-58
2022/09/15 14:26:13;;;;;;;1.75;1.70;;;;;;;;;;5009954;28;20283;-58
2022/09/15 14:28:41;;;;;;;1.70;1.60;;;;;;;;;;5009723;28;20223;-58
2022/09/15 14:31:08;;;;;;;1.80;1.70;;;;;;;;;;5010854;28;20213;-58
2022/09/15 14:33:37;;;;;;;1.83;1.73;;;;;;;;;;5009952;28;20267;-58
2022/09/15 14:36:12;;;;;;;1.52;1.42;;;;;;;;;;5026943;28;20216;-58
2022/09/15 14:38:40;;;;;;;2.60;2.00;;;;;;;;;;5012470;28;20563;-58
2022/09/15 14:41:07;;;;;;;3.70;1.95;;;;;;;;;;5026606;28;20216;-58
2022/09/15 14:43:35;;;;;;;1.50;1.50;;;;;;;;;;5029188;28;20212;-59
2022/09/15 14:46:10;;;;;;;2.22;2.10;;;;;;;;;;5012403;28;20295;-58
2022/09/15 14:48:37;;;;;;;1.20;1.20;;;;;;;;;;5009528;28;20683;-58
2022/09/15 14:51:06;;;;;;;1.85;1.85;;;;;;;;;;5025397;28;20200;-58
2022/09/15 14:53:34;;;;;;;1.73;1.63;;;;;;;;;;5029087;28;20220;-58
2022/09/15 14:56:06;;;;;;;2.08;1.98;;;;;;;;;;5024401;28;20658;-58
2022/09/15 14:58:36;;;;;;;1.50;1.50;;;;;;;;;;5029002;28;20307;-59
2022/09/15 15:01:06;;;;;;;1.40;1.40;;;;;;;;;;5013010;28;20504;-57
2022/09/15 15:03:36;;;;;;;1.65;1.65;;;;;;;;;;5017317;28;20228;-59
2022/09/15 15:06:05;;;;;;;1.30;1.30;;;;;;;;;;5009582;28;20848;-60
2022/09/15 15:08:35;;;;;;;1.40;1.38;;;;;;;;;;5021232;28;20208;-60